TimeCDT,TemperatureF,Dew PointF,Humidity,Sea Level PressureIn,VisibilityMPH,Wind Direction,Wind SpeedMPH,Gust SpeedMPH,PrecipitationIn,Events,Conditions,WindDirDegrees,DateUTC
12:09 AM,42.8,37.4,81,29.91,10.0,SW,5.8,-,N/A,,Overcast,230,2013-05-04 05:09:00
12:53 AM,41.0,37.9,89,29.91,6.0,SW,5.8,-,N/A,,Overcast,220,2013-05-04 05:53:00
1:02 AM,41.0,37.4,87,29.90,10.0,SW,5.8,-,N/A,,Overcast,220,2013-05-04 06:02:00
1:13 AM,41.0,37.4,87,29.90,10.0,WSW,4.6,-,N/A,,Overcast,240,2013-05-04 06:13:00
1:53 AM,41.0,37.0,86,29.91,10.0,SW,8.1,-,N/A,,Overcast,220,2013-05-04 06:53:00
2:04 AM,41.0,37.4,87,29.90,10.0,SSW,6.9,-,N/A,,Overcast,210,2013-05-04 07:04:00
2:20 AM,39.2,37.4,93,29.89,10.0,SW,3.5,-,N/A,,Overcast,220,2013-05-04 07:20:00
2:53 AM,41.0,37.0,86,29.89,10.0,SW,6.9,-,N/A,,Overcast,220,2013-05-04 07:53:00
3:02 AM,41.0,37.4,87,29.88,10.0,SW,9.2,-,N/A,,Overcast,220,2013-05-04 08:02:00
3:13 AM,41.0,35.6,81,29.88,10.0,SSW,8.1,-,N/A,,Overcast,210,2013-05-04 08:13:00
3:53 AM,39.9,36.0,86,29.89,10.0,SW,8.1,-,N/A,,Overcast,230,2013-05-04 08:53:00
3:58 AM,39.2,35.6,87,29.88,10.0,SW,8.1,-,N/A,,Overcast,230,2013-05-04 08:58:00
4:06 AM,39.2,35.6,87,29.88,10.0,WSW,5.8,-,N/A,,Overcast,240,2013-05-04 09:06:00
4:53 AM,39.0,33.1,79,29.90,10.0,SW,8.1,-,N/A,,Overcast,230,2013-05-04 09:53:00
5:53 AM,37.9,33.1,83,29.92,10.0,SW,5.8,-,N/A,,Overcast,230,2013-05-04 10:53:00
6:53 AM,39.0,34.0,82,29.94,10.0,Calm,Calm,-,N/A,,Mostly Cloudy,0,2013-05-04 11:53:00
7:00 AM,39.2,33.8,81,29.92,10.0,Calm,Calm,-,N/A,,Scattered Clouds,0,2013-05-04 12:00:00
7:53 AM,39.9,33.1,77,29.94,10.0,SSW,4.6,-,N/A,,Partly Cloudy,210,2013-05-04 12:53:00
8:53 AM,42.1,34.0,73,29.95,10.0,Calm,Calm,-,N/A,,Partly Cloudy,0,2013-05-04 13:53:00
9:53 AM,44.1,34.0,68,29.95,10.0,SSW,4.6,-,N/A,,Mostly Cloudy,210,2013-05-04 14:53:00
10:53 AM,46.9,36.0,66,29.95,10.0,South,8.1,-,N/A,,Overcast,190,2013-05-04 15:53:00
11:50 AM,48.2,35.6,62,29.93,10.0,South,3.5,-,N/A,,Overcast,180,2013-05-04 16:50:00
11:53 AM,48.0,35.1,61,29.94,10.0,SSE,6.9,-,N/A,,Overcast,160,2013-05-04 16:53:00
12:53 PM,50.0,37.0,61,29.93,10.0,SE,9.2,-,N/A,,Overcast,140,2013-05-04 17:53:00
1:53 PM,50.0,37.0,61,29.92,10.0,SSE,9.2,-,N/A,,Overcast,150,2013-05-04 18:53:00
2:53 PM,51.1,37.0,59,29.94,10.0,SE,4.6,-,N/A,,Mostly Cloudy,140,2013-05-04 19:53:00
3:53 PM,52.0,37.9,59,29.92,10.0,SSE,6.9,-,N/A,,Overcast,160,2013-05-04 20:53:00
4:53 PM,52.0,37.0,57,29.94,10.0,SSE,4.6,-,N/A,,Mostly Cloudy,150,2013-05-04 21:53:00
5:53 PM,51.1,39.9,66,29.94,10.0,SSE,5.8,-,0.00,Rain,Light Rain,160,2013-05-04 22:53:00
6:53 PM,51.1,41.0,68,29.95,10.0,SE,5.8,-,0.00,,Overcast,130,2013-05-04 23:53:00
7:53 PM,50.0,41.0,71,29.96,10.0,ESE,3.5,-,N/A,,Scattered Clouds,110,2013-05-05 00:53:00
8:53 PM,48.0,43.0,83,29.97,10.0,North,3.5,-,N/A,,Mostly Cloudy,10,2013-05-05 01:53:00
9:53 PM,46.9,43.0,86,29.97,10.0,North,4.6,-,N/A,,Overcast,10,2013-05-05 02:53:00
10:53 PM,48.0,42.1,80,29.96,10.0,North,4.6,-,N/A,,Overcast,10,2013-05-05 03:53:00
11:53 PM,48.0,41.0,77,29.96,10.0,North,4.6,-,N/A,,Overcast,10,2013-05-05 04:53:00